Canefield Airport

Fair
28oC (82oF)

Fair


Winds: East south easterly @ 05kts / 09km/h

Humidity: 47%

Barometric Pressure: 1011 mb

Accumulated Rainfall for March: 14.6 mm

Updated: 18:00 local time (22:00 UTC)

Douglas-Charles Airport

Fair
25oC (77oF)

Fair


Winds: South easterly @ 05kts / 09km/h

Humidity: 65%

Barometric Pressure: 1015 mb

Accumulated Rainfall for March: 53.6 mm

Updated: 20:00 local time (00:00 UTC)

Satellite Imagery

Satellite Imagery
Click image for larger view. (Source: National Hurricane Center).

Aviation Routine Report (METAR)

Douglas-Charles: METAR TDPD 270000Z 13005KT 9999 FEW020 25/19 Q1015=
Canefield: METAR TDCF 262200Z 11005KT FEW020 28/15 Q1011=